createdAt,value
2022-09-17T00:00:38.134Z,18.51
2022-09-17T00:03:10.589Z,18.48
2022-09-17T00:05:43.573Z,18.51
2022-09-17T00:08:16.059Z,18.49
2022-09-17T00:10:48.577Z,18.52
2022-09-17T00:13:21.838Z,18.57
2022-09-17T00:15:54.145Z,18.51
2022-09-17T00:18:26.555Z,18.58
2022-09-17T00:20:59.360Z,18.52
2022-09-17T00:23:31.681Z,18.56
2022-09-17T00:26:05.978Z,18.60
2022-09-17T00:28:39.091Z,18.61
2022-09-17T00:31:11.467Z,18.70
2022-09-17T00:33:43.759Z,18.70
2022-09-17T00:36:16.486Z,18.78
2022-09-17T00:38:49.996Z,18.83
2022-09-17T00:41:23.440Z,18.95
2022-09-17T00:43:57.742Z,19.11
2022-09-17T00:46:34.913Z,19.24
2022-09-17T00:49:14.573Z,19.32
2022-09-17T00:51:55.965Z,19.35
2022-09-17T00:54:30.986Z,19.43
2022-09-17T00:57:03.561Z,19.52
2022-09-17T00:59:37.038Z,19.63
2022-09-17T01:02:09.906Z,19.78
2022-09-17T01:04:42.631Z,19.86
2022-09-17T01:07:28.876Z,20.06
2022-09-17T01:10:09.445Z,20.07
2022-09-17T01:12:59.110Z,20.18
2022-09-17T01:15:41.465Z,20.23
2022-09-17T01:18:31.953Z,20.29
2022-09-17T01:21:31.985Z,20.34
2022-09-17T01:24:44.829Z,20.41
2022-09-17T01:27:45.796Z,20.43
2022-09-17T01:30:32.743Z,20.35
2022-09-17T01:33:10.875Z,20.45
2022-09-17T01:35:50.794Z,20.54
2022-09-17T01:38:27.878Z,20.40
2022-09-17T01:41:07.105Z,20.56
2022-09-17T01:43:46.392Z,20.54
2022-09-17T01:46:23.204Z,20.51
2022-09-17T01:49:00.378Z,20.55
2022-09-17T01:51:38.642Z,20.60
2022-09-17T01:54:18.159Z,20.65
2022-09-17T01:56:55.805Z,20.70
2022-09-17T01:59:32.969Z,20.75
2022-09-17T02:02:11.318Z,20.76
2022-09-17T02:04:48.539Z,20.80
2022-09-17T02:07:23.188Z,20.78
2022-09-17T02:09:59.462Z,20.85
2022-09-17T02:12:35.561Z,20.75
2022-09-17T02:15:12.489Z,20.60
2022-09-17T02:17:49.113Z,20.72
2022-09-17T02:20:29.626Z,20.70
2022-09-17T02:23:07.962Z,20.77
2022-09-17T02:25:44.021Z,20.52
2022-09-17T02:28:24.718Z,20.51
2022-09-17T02:30:57.120Z,20.43
2022-09-17T02:33:33.316Z,20.45
2022-09-17T02:36:06.336Z,20.55
2022-09-17T02:38:43.492Z,20.42
2022-09-17T02:41:19.673Z,20.33
2022-09-17T02:44:00.715Z,20.34
2022-09-17T02:46:57.802Z,20.14
2022-09-17T02:49:49.443Z,20.20
2022-09-17T02:52:32.158Z,20.24
2022-09-17T02:55:14.773Z,20.21
2022-09-17T02:57:54.123Z,20.15
2022-09-17T03:00:27.529Z,20.20
2022-09-17T03:03:03.882Z,20.25
2022-09-17T03:05:39.331Z,20.27
2022-09-17T03:08:13.675Z,20.26
2022-09-17T03:10:48.215Z,20.32
2022-09-17T03:13:20.599Z,20.41
2022-09-17T03:15:52.921Z,20.41
2022-09-17T03:18:25.250Z,20.36
2022-09-17T03:20:58.222Z,20.34
2022-09-17T03:23:30.559Z,20.43
2022-09-17T03:26:02.992Z,20.39
2022-09-17T03:28:35.262Z,20.30
2022-09-17T03:31:07.679Z,20.02
2022-09-17T03:33:40.039Z,20.06
2022-09-17T03:36:13.001Z,20.00
2022-09-17T03:38:45.342Z,19.98
2022-09-17T03:41:17.636Z,19.96
2022-09-17T03:43:50.152Z,19.80
2022-09-17T03:46:22.466Z,19.69
2022-09-17T03:48:54.854Z,19.67
2022-09-17T03:51:27.999Z,19.68
2022-09-17T03:54:00.394Z,19.61
2022-09-17T03:56:33.047Z,19.57
2022-09-17T03:59:05.342Z,19.51
2022-09-17T04:01:38.075Z,19.49
2022-09-17T04:04:10.448Z,19.57
2022-09-17T04:06:43.383Z,19.63
2022-09-17T04:09:16.083Z,19.65
2022-09-17T04:11:48.408Z,19.66
2022-09-17T04:14:20.789Z,19.69
2022-09-17T04:16:53.104Z,19.68
2022-09-17T04:19:25.463Z,19.67
2022-09-17T04:21:58.393Z,19.43
2022-09-17T04:24:30.652Z,19.43
2022-09-17T04:27:03.103Z,19.45
2022-09-17T04:29:35.399Z,19.14
2022-09-17T04:32:08.143Z,18.82
2022-09-17T04:34:40.572Z,18.55
2022-09-17T04:37:13.543Z,18.58
2022-09-17T04:39:45.841Z,18.37
2022-09-17T04:42:18.324Z,18.24
2022-09-17T04:44:50.730Z,17.93
2022-09-17T04:47:23.007Z,17.88
2022-09-17T04:49:55.337Z,17.90
2022-09-17T04:52:30.997Z,17.83
2022-09-17T04:55:04.252Z,17.30
2022-09-17T04:57:36.567Z,17.44
2022-09-17T05:00:12.912Z,17.42
2022-09-17T05:02:46.291Z,17.42
2022-09-17T05:05:19.384Z,17.49
2022-09-17T05:07:52.618Z,17.67
2022-09-17T05:10:25.694Z,17.75
2022-09-17T05:12:57.947Z,17.83
2022-09-17T05:15:30.249Z,17.83
2022-09-17T05:18:03.482Z,17.91
2022-09-17T05:20:35.789Z,18.00
2022-09-17T05:23:08.737Z,18.10
2022-09-17T05:25:41.034Z,18.05
2022-09-17T05:28:13.310Z,17.92
2022-09-17T05:30:45.543Z,17.96
2022-09-17T05:33:18.822Z,18.08
2022-09-17T05:35:51.288Z,18.14
2022-09-17T05:38:24.246Z,18.20
2022-09-17T05:40:56.683Z,18.21
2022-09-17T05:43:28.992Z,18.27
2022-09-17T05:46:02.467Z,18.33
2022-09-17T05:48:34.792Z,18.36
2022-09-17T05:51:07.102Z,18.37
2022-09-17T05:53:40.071Z,18.37
2022-09-17T05:56:12.340Z,18.40
2022-09-17T05:58:44.670Z,18.40
2022-09-17T06:01:16.957Z,18.49
2022-09-17T06:03:49.391Z,18.44
2022-09-17T06:06:21.731Z,18.48
2022-09-17T06:08:54.735Z,18.50
2022-09-17T06:11:27.795Z,18.50
2022-09-17T06:14:00.908Z,18.48
2022-09-17T06:16:33.258Z,18.55
2022-09-17T06:19:05.545Z,18.56
2022-09-17T06:21:37.836Z,18.60
2022-09-17T06:24:10.977Z,18.65
2022-09-17T06:26:43.244Z,18.69
2022-09-17T06:29:15.674Z,18.70
2022-09-17T06:31:48.399Z,18.72
2022-09-17T06:34:20.771Z,18.73
2022-09-17T06:36:53.034Z,18.73
2022-09-17T06:39:25.997Z,18.74
2022-09-17T06:41:58.688Z,18.78
2022-09-17T06:44:33.731Z,18.67
2022-09-17T06:47:07.250Z,18.64
2022-09-17T06:49:39.588Z,18.52
2022-09-17T06:52:11.864Z,18.45
2022-09-17T06:54:44.846Z,18.45
2022-09-17T06:57:17.262Z,18.30
2022-09-17T06:59:50.149Z,18.36
2022-09-17T07:02:22.568Z,18.33
2022-09-17T07:04:54.913Z,18.27
2022-09-17T07:07:28.460Z,18.19
2022-09-17T07:10:01.632Z,18.33
2022-09-17T07:12:33.968Z,18.44
2022-09-17T07:15:07.209Z,18.56
2022-09-17T07:17:39.886Z,18.73
2022-09-17T07:20:12.733Z,18.78
2022-09-17T07:22:45.105Z,18.96
2022-09-17T07:25:18.156Z,19.08
2022-09-17T07:27:50.565Z,19.23
2022-09-17T07:30:23.060Z,19.28
2022-09-17T07:32:55.374Z,19.34
2022-09-17T07:35:27.829Z,19.50
2022-09-17T07:38:00.149Z,19.66
2022-09-17T07:40:33.162Z,19.89
2022-09-17T07:43:06.407Z,20.07
2022-09-17T07:45:38.700Z,20.04
2022-09-17T07:48:11.119Z,20.21
2022-09-17T07:50:43.414Z,20.50
2022-09-17T07:53:16.100Z,20.81
2022-09-17T07:55:52.631Z,21.01
2022-09-17T07:58:30.190Z,21.17
2022-09-17T08:01:03.904Z,21.34
2022-09-17T08:03:36.496Z,21.68
2022-09-17T08:06:10.371Z,21.98
2022-09-17T08:08:42.837Z,22.09
2022-09-17T08:11:32.402Z,22.37
2022-09-17T08:14:11.976Z,22.60
2022-09-17T08:16:45.730Z,22.80
2022-09-17T08:19:18.604Z,22.89
2022-09-17T08:21:51.461Z,23.10
2022-09-17T08:24:23.740Z,23.32
2022-09-17T08:26:56.708Z,22.97
2022-09-17T08:29:33.182Z,22.74
2022-09-17T08:32:07.371Z,22.95
2022-09-17T08:34:39.611Z,23.10
2022-09-17T08:37:11.949Z,23.10
2022-09-17T08:39:44.325Z,22.97
2022-09-17T08:42:25.239Z,22.62
2022-09-17T08:45:00.850Z,22.69
2022-09-17T08:47:36.024Z,22.74
2022-09-17T08:50:15.022Z,22.77
2022-09-17T08:53:22.759Z,22.60
2022-09-17T08:56:01.475Z,22.39
2022-09-17T08:58:56.006Z,22.44
2022-09-17T09:01:34.988Z,22.46
2022-09-17T09:04:34.135Z,22.36
2022-09-17T09:07:08.899Z,22.40
2022-09-17T09:09:49.258Z,22.38
2022-09-17T09:12:26.825Z,22.27
2022-09-17T09:15:03.022Z,22.27
2022-09-17T09:17:42.260Z,22.22
2022-09-17T09:20:19.576Z,22.15
2022-09-17T09:22:52.633Z,22.06
2022-09-17T09:25:30.667Z,21.97
2022-09-17T09:28:20.595Z,21.91
2022-09-17T09:31:03.945Z,21.73
2022-09-17T09:33:39.125Z,21.46
2022-09-17T09:36:14.935Z,21.24
2022-09-17T09:38:53.070Z,21.05
2022-09-17T09:41:31.343Z,20.46
2022-09-17T09:44:09.115Z,20.14
2022-09-17T09:46:55.781Z,20.11
2022-09-17T09:49:40.699Z,19.66
2022-09-17T09:52:26.199Z,19.42
2022-09-17T09:55:11.814Z,19.34
2022-09-17T09:57:46.811Z,19.07
2022-09-17T10:00:26.167Z,19.08
2022-09-17T10:03:04.415Z,19.07
2022-09-17T10:05:36.935Z,19.15
2022-09-17T10:08:13.293Z,19.14
2022-09-17T10:11:00.278Z,18.71
2022-09-17T10:13:34.991Z,18.42
2022-09-17T10:16:18.231Z,18.24
2022-09-17T10:19:12.972Z,18.17
2022-09-17T10:21:45.481Z,18.08
2022-09-17T10:24:25.294Z,18.04
2022-09-17T10:27:01.543Z,18.04
2022-09-17T10:29:34.197Z,17.98
2022-09-17T10:32:07.872Z,17.80
2022-09-17T10:34:43.031Z,17.71
2022-09-17T10:37:32.527Z,17.54
2022-09-17T10:40:24.210Z,17.66
2022-09-17T10:43:26.777Z,17.85
2022-09-17T10:46:00.644Z,17.96
2022-09-17T10:48:37.715Z,17.88
2022-09-17T10:51:20.461Z,18.03
2022-09-17T10:54:40.806Z,18.05
2022-09-17T10:57:21.469Z,18.12
2022-09-17T11:00:04.220Z,18.15
2022-09-17T11:03:14.884Z,18.24
2022-09-17T11:06:12.280Z,18.37
2022-09-17T11:09:00.645Z,18.46
2022-09-17T11:11:47.934Z,18.55
2022-09-17T11:14:40.054Z,18.64
2022-09-17T11:17:21.889Z,18.64
2022-09-17T11:20:01.475Z,18.72
2022-09-17T11:22:47.762Z,18.75
2022-09-17T11:25:36.034Z,18.71
2022-09-17T11:28:36.338Z,18.60
2022-09-17T11:31:24.225Z,18.49
2022-09-17T11:34:19.066Z,18.51
2022-09-17T11:36:58.579Z,18.56
2022-09-17T11:39:32.834Z,18.27
2022-09-17T11:42:12.151Z,18.13
2022-09-17T11:44:47.783Z,18.08
2022-09-17T11:47:24.861Z,18.07
2022-09-17T11:50:02.035Z,17.94
2022-09-17T11:52:38.467Z,17.74
2022-09-17T11:55:20.182Z,17.62
2022-09-17T11:58:00.015Z,17.67
2022-09-17T12:00:37.571Z,17.66
2022-09-17T12:03:18.638Z,17.56
2022-09-17T12:05:55.015Z,17.63
2022-09-17T12:08:37.450Z,17.55
2022-09-17T12:11:14.233Z,17.38
2022-09-17T12:13:50.834Z,17.49
2022-09-17T12:16:26.368Z,17.50
2022-09-17T12:19:04.845Z,17.38
2022-09-17T12:21:42.281Z,17.56
2022-09-17T12:24:24.069Z,17.49
2022-09-17T12:27:12.791Z,17.46
2022-09-17T12:30:10.898Z,17.33
2022-09-17T12:32:57.131Z,17.22
2022-09-17T12:36:10.072Z,17.18
2022-09-17T12:39:02.783Z,17.30
2022-09-17T12:41:45.712Z,16.97
2022-09-17T12:44:46.219Z,17.13
2022-09-17T12:47:40.483Z,16.91
2022-09-17T12:50:20.020Z,16.87
2022-09-17T12:53:10.341Z,16.92
2022-09-17T12:56:02.158Z,16.85
2022-09-17T12:58:56.351Z,16.79
2022-09-17T13:01:35.982Z,16.87
2022-09-17T13:04:38.191Z,16.66
2022-09-17T13:07:39.328Z,16.58
2022-09-17T13:10:32.848Z,16.62
2022-09-17T13:13:16.720Z,16.55
2022-09-17T13:15:57.810Z,16.64
2022-09-17T13:18:41.416Z,16.52
2022-09-17T13:21:23.634Z,16.50
2022-09-17T13:23:56.342Z,16.58
2022-09-17T13:26:38.870Z,16.61
2022-09-17T13:29:13.099Z,16.55
2022-09-17T13:31:49.331Z,16.58
2022-09-17T13:34:30.367Z,16.47
2022-09-17T13:37:04.048Z,16.61
2022-09-17T13:39:39.896Z,16.63
2022-09-17T13:42:19.650Z,16.64
2022-09-17T13:45:02.265Z,16.65
2022-09-17T13:47:38.850Z,16.71
2022-09-17T13:50:26.112Z,16.78
2022-09-17T13:53:06.337Z,16.79
2022-09-17T13:55:41.968Z,16.79
2022-09-17T13:58:26.850Z,16.70
2022-09-17T14:01:01.028Z,16.82
2022-09-17T14:03:53.076Z,16.86
2022-09-17T14:06:50.771Z,17.03
2022-09-17T14:09:49.748Z,17.11
2022-09-17T14:12:51.526Z,17.17
2022-09-17T14:15:55.633Z,17.28
2022-09-17T14:18:36.476Z,17.32
2022-09-17T14:21:18.215Z,17.28
2022-09-17T14:23:56.135Z,17.34
2022-09-17T14:26:59.804Z,17.13
2022-09-17T14:30:04.350Z,16.94
2022-09-17T14:32:42.208Z,16.77
2022-09-17T14:35:20.303Z,16.83
2022-09-17T14:37:56.995Z,17.04
2022-09-17T14:40:32.066Z,17.19
2022-09-17T14:43:05.208Z,17.17
2022-09-17T14:45:42.343Z,17.11
2022-09-17T14:48:28.790Z,17.00
2022-09-17T14:51:31.560Z,17.12
2022-09-17T14:54:20.944Z,17.08
2022-09-17T14:56:59.090Z,17.01
2022-09-17T14:59:49.066Z,17.09
2022-09-17T15:02:35.510Z,17.11
2022-09-17T15:05:27.531Z,16.91
2022-09-17T15:08:15.927Z,16.87
2022-09-17T15:10:51.718Z,16.74
2022-09-17T15:13:27.478Z,16.77
2022-09-17T15:16:04.183Z,16.85
2022-09-17T15:18:40.115Z,16.80
2022-09-17T15:21:24.318Z,16.94
2022-09-17T15:24:04.903Z,16.80
2022-09-17T15:26:41.304Z,16.90
2022-09-17T15:29:14.486Z,16.89
2022-09-17T15:31:47.672Z,16.97
2022-09-17T15:34:20.049Z,16.98
2022-09-17T15:37:05.293Z,16.86
2022-09-17T15:39:40.079Z,17.00
2022-09-17T15:42:21.871Z,17.00
2022-09-17T15:45:07.494Z,16.97
2022-09-17T15:47:54.228Z,16.93
2022-09-17T15:50:28.594Z,16.96
2022-09-17T15:53:14.489Z,16.91
2022-09-17T15:55:59.610Z,17.06
2022-09-17T15:58:37.443Z,17.16
2022-09-17T16:01:50.791Z,17.10
2022-09-17T16:04:30.374Z,17.07
2022-09-17T16:07:26.678Z,17.07
2022-09-17T16:09:58.963Z,17.15
2022-09-17T16:12:31.356Z,17.08
2022-09-17T16:15:05.250Z,17.13
2022-09-17T16:17:45.080Z,17.01
2022-09-17T16:20:21.274Z,17.10
2022-09-17T16:22:54.144Z,17.01
2022-09-17T16:25:28.554Z,16.91
2022-09-17T16:28:03.409Z,17.06
2022-09-17T16:30:36.051Z,17.05
2022-09-17T16:33:11.429Z,17.09
2022-09-17T16:35:44.509Z,17.17
2022-09-17T16:38:16.822Z,17.10
2022-09-17T16:40:51.027Z,17.27
2022-09-17T16:43:23.274Z,17.31
2022-09-17T16:45:59.467Z,17.31
2022-09-17T16:48:32.500Z,17.35
2022-09-17T16:51:08.169Z,17.27
2022-09-17T16:53:40.746Z,17.34
2022-09-17T16:56:14.991Z,17.36
2022-09-17T16:58:47.611Z,17.47
2022-09-17T17:01:20.106Z,17.40
2022-09-17T17:03:53.540Z,17.47
2022-09-17T17:06:26.674Z,17.43
2022-09-17T17:09:00.350Z,17.35
2022-09-17T17:11:32.687Z,17.40
2022-09-17T17:14:05.447Z,17.36
2022-09-17T17:16:40.156Z,17.45
2022-09-17T17:19:12.508Z,17.49
2022-09-17T17:21:47.307Z,17.52
2022-09-17T17:24:19.836Z,17.55
2022-09-17T17:26:52.138Z,17.58
2022-09-17T17:29:24.478Z,17.56
2022-09-17T17:31:56.753Z,17.63
2022-09-17T17:34:30.286Z,17.68
2022-09-17T17:37:03.269Z,17.67
2022-09-17T17:39:35.613Z,17.70
2022-09-17T17:42:08.180Z,17.75
2022-09-17T17:44:40.830Z,17.86
2022-09-17T17:47:13.191Z,17.87
2022-09-17T17:49:45.479Z,17.87
2022-09-17T17:52:18.419Z,17.85
2022-09-17T17:54:50.792Z,17.90
2022-09-17T17:57:23.050Z,17.87
2022-09-17T17:59:55.332Z,17.95
2022-09-17T18:02:27.764Z,18.02
2022-09-17T18:05:04.183Z,18.04
2022-09-17T18:07:37.523Z,17.98
2022-09-17T18:10:10.126Z,18.04
2022-09-17T18:12:49.390Z,17.98
2022-09-17T18:15:21.738Z,17.99
2022-09-17T18:17:54.089Z,17.96
2022-09-17T18:20:26.442Z,18.09
2022-09-17T18:22:59.401Z,18.02
2022-09-17T18:25:31.850Z,18.10
2022-09-17T18:28:04.141Z,18.07
2022-09-17T18:30:37.212Z,18.10
2022-09-17T18:33:09.541Z,18.22
2022-09-17T18:35:41.966Z,18.20
2022-09-17T18:38:15.698Z,18.28
2022-09-17T18:40:48.035Z,18.21
2022-09-17T18:43:20.475Z,18.22
2022-09-17T18:45:54.707Z,18.35
2022-09-17T18:48:27.459Z,18.25
2022-09-17T18:51:01.204Z,18.32
2022-09-17T18:53:35.800Z,18.32
2022-09-17T18:56:15.289Z,18.16
2022-09-17T18:58:48.194Z,18.07
2022-09-17T19:01:22.326Z,18.03
2022-09-17T19:03:55.546Z,18.05
2022-09-17T19:06:28.107Z,18.00
2022-09-17T19:09:02.982Z,18.06
2022-09-17T19:11:35.556Z,18.03
2022-09-17T19:14:09.585Z,18.01
2022-09-17T19:16:41.897Z,18.00
2022-09-17T19:19:14.190Z,17.94
2022-09-17T19:21:48.862Z,18.00
2022-09-17T19:24:21.936Z,18.03
2022-09-17T19:26:54.292Z,18.00
2022-09-17T19:29:26.896Z,18.00
2022-09-17T19:31:59.249Z,18.03
2022-09-17T19:34:31.585Z,18.05
2022-09-17T19:37:04.018Z,17.98
2022-09-17T19:39:37.070Z,17.99
2022-09-17T19:42:09.715Z,17.96
2022-09-17T19:44:42.110Z,18.03
2022-09-17T19:47:14.420Z,18.04
2022-09-17T19:49:48.604Z,18.02
2022-09-17T19:52:21.178Z,17.94
2022-09-17T19:54:54.364Z,18.01
2022-09-17T19:57:26.749Z,17.96
2022-09-17T19:59:59.095Z,17.93
2022-09-17T20:02:31.393Z,18.05
2022-09-17T20:05:04.358Z,17.97
2022-09-17T20:07:36.663Z,18.01
2022-09-17T20:10:09.985Z,18.03
2022-09-17T20:12:42.334Z,18.03
2022-09-17T20:15:14.818Z,18.00
2022-09-17T20:17:47.245Z,18.05
2022-09-17T20:20:19.561Z,18.16
2022-09-17T20:22:51.880Z,17.96
2022-09-17T20:25:25.083Z,17.99
2022-09-17T20:27:57.482Z,18.07
2022-09-17T20:30:29.834Z,18.07
2022-09-17T20:33:02.167Z,18.20
2022-09-17T20:35:35.075Z,18.08
2022-09-17T20:41:05.343Z,18.18
2022-09-17T20:43:39.651Z,18.20
2022-09-17T20:46:12.879Z,18.22
2022-09-17T20:48:45.391Z,18.20
2022-09-17T20:51:19.786Z,18.23
2022-09-17T20:53:52.324Z,18.22
2022-09-17T20:56:27.206Z,18.17
2022-09-17T20:59:07.659Z,18.22
2022-09-17T21:01:43.806Z,18.29
2022-09-17T21:04:21.085Z,18.43
2022-09-17T21:06:54.538Z,18.33
2022-09-17T21:09:26.866Z,18.37
2022-09-17T21:11:59.831Z,18.42
2022-09-17T21:14:32.124Z,18.46
2022-09-17T21:17:05.524Z,18.56
2022-09-17T21:19:37.804Z,18.60
2022-09-17T21:22:10.105Z,18.55
2022-09-17T21:24:42.389Z,18.57
2022-09-17T21:27:15.312Z,18.73
2022-09-17T21:29:47.643Z,18.67
2022-09-17T21:32:19.974Z,18.69
2022-09-17T21:34:52.229Z,18.73
2022-09-17T21:37:25.450Z,18.75
2022-09-17T21:39:57.971Z,18.77
2022-09-17T21:42:32.243Z,18.75
2022-09-17T21:45:05.762Z,18.80
2022-09-17T21:47:38.102Z,18.84
2022-09-17T21:50:10.395Z,18.78
2022-09-17T21:52:42.674Z,18.76
2022-09-17T21:55:15.068Z,18.76
2022-09-17T21:57:48.064Z,18.69
2022-09-17T22:00:23.426Z,18.83
2022-09-17T22:02:55.977Z,18.72
2022-09-17T22:05:28.387Z,18.76
2022-09-17T22:08:00.733Z,18.81
2022-09-17T22:10:33.002Z,18.68
2022-09-17T22:13:05.993Z,18.66
2022-09-17T22:15:38.509Z,18.69
2022-09-17T22:18:13.015Z,18.61
2022-09-17T22:20:45.474Z,18.63
2022-09-17T22:23:17.782Z,18.56
2022-09-17T22:26:00.310Z,18.63
2022-09-17T22:28:33.874Z,18.46
2022-09-17T22:31:09.017Z,18.47
2022-09-17T22:33:43.273Z,18.46
2022-09-17T22:36:17.216Z,18.52
2022-09-17T22:38:50.811Z,18.34
2022-09-17T22:41:25.086Z,18.32
2022-09-17T22:44:00.543Z,18.02
2022-09-17T22:46:35.232Z,18.01
2022-09-17T22:49:09.768Z,18.00
2022-09-17T22:51:43.020Z,17.96
2022-09-17T22:54:17.050Z,17.95
2022-09-17T22:56:49.452Z,17.96
2022-09-17T22:59:22.359Z,17.84
2022-09-17T23:01:54.696Z,17.88
2022-09-17T23:04:27.155Z,17.81
2022-09-17T23:06:59.453Z,17.89
2022-09-17T23:09:31.791Z,17.78
2022-09-17T23:12:04.398Z,17.90
2022-09-17T23:14:37.347Z,17.89
2022-09-17T23:17:09.699Z,17.95
2022-09-17T23:19:42.016Z,17.88
2022-09-17T23:22:14.365Z,17.92
2022-09-17T23:24:46.892Z,17.93
2022-09-17T23:27:19.231Z,17.86
2022-09-17T23:29:52.187Z,17.88
2022-09-17T23:32:24.489Z,17.90
2022-09-17T23:34:56.992Z,17.98
2022-09-17T23:37:29.380Z,17.98
2022-09-17T23:40:01.939Z,17.97
2022-09-17T23:42:35.249Z,17.77
2022-09-17T23:45:08.938Z,17.82
2022-09-17T23:47:41.206Z,17.65
2022-09-17T23:50:13.607Z,17.68
2022-09-17T23:52:46.007Z,17.83
2022-09-17T23:55:19.468Z,17.84
2022-09-17T23:57:51.764Z,17.75
